Time;durP1;ratioP1;P1;durP2;ratioP2;P2;SDS_P1;SDS_P2;PMS_P1;PMS_P2;Temp;Humidity;BMP_temperature;BMP_pressure;BME280_temperature;BME280_humidity;BME280_pressure;Samples;Min_cycle;Max_cycle;Signal;HPM_P1;HPM_P2
2022/06/10 00:02:06;;;;;;;2.05;0.80;;;12.30;99.90;;;;;;5093694;27;20036;-69
2022/06/10 00:04:33;;;;;;;1.25;0.85;;;12.20;99.90;;;;;;5088815;27;20040;-70
2022/06/10 00:06:59;;;;;;;0.73;0.50;;;12.20;99.90;;;;;;5103504;27;20067;-70
2022/06/10 00:09:25;;;;;;;1.27;0.85;;;12.20;99.90;;;;;;5078915;28;20071;-70
2022/06/10 00:11:50;;;;;;;1.30;0.70;;;12.30;99.90;;;;;;5082756;28;20039;-70
2022/06/10 00:14:16;;;;;;;2.13;0.63;;;12.20;99.90;;;;;;5093520;27;20143;-70
2022/06/10 00:16:41;;;;;;;1.70;0.68;;;12.20;99.90;;;;;;5078817;28;20056;-70
2022/06/10 00:19:07;;;;;;;2.10;0.80;;;12.10;99.90;;;;;;5092139;27;20537;-70
2022/06/10 00:21:33;;;;;;;3.83;0.77;;;12.10;99.90;;;;;;5082257;27;20073;-70
2022/06/10 00:23:58;;;;;;;0.85;0.60;;;12.10;99.90;;;;;;5097916;27;20035;-70
2022/06/10 00:26:24;;;;;;;0.93;0.60;;;12.00;99.90;;;;;;5097151;27;20036;-70
2022/06/10 00:28:50;;;;;;;1.30;0.80;;;12.00;99.90;;;;;;5094026;27;20039;-69
2022/06/10 00:31:17;;;;;;;1.33;0.85;;;12.00;99.90;;;;;;5097213;27;20038;-70
2022/06/10 00:33:42;;;;;;;1.80;1.08;;;12.00;99.90;;;;;;5094147;27;20040;-70
2022/06/10 00:36:10;;;;;;;1.27;0.73;;;12.00;99.90;;;;;;5103058;27;20491;-70
2022/06/10 00:38:36;;;;;;;1.40;0.70;;;12.00;99.90;;;;;;5079136;27;20031;-70
2022/06/10 00:41:03;;;;;;;1.38;0.45;;;12.00;99.90;;;;;;5093348;27;20073;-70
2022/06/10 00:43:33;;;;;;;1.67;0.50;;;11.90;99.90;;;;;;5098243;27;20712;-70
2022/06/10 00:45:58;;;;;;;4.65;0.75;;;11.90;99.90;;;;;;5076161;27;20050;-70
2022/06/10 00:48:37;;;;;;;1.30;0.90;;;11.90;99.90;;;;;;5096975;27;20212;-70
2022/06/10 00:51:13;;;;;;;1.98;0.90;;;11.90;99.90;;;;;;5077455;28;20506;-70
2022/06/10 00:53:39;;;;;;;4.57;0.85;;;11.90;99.90;;;;;;5086175;27;20086;-70
2022/06/10 00:56:11;;;;;;;1.05;0.68;;;12.00;99.90;;;;;;5103815;27;20059;-70
2022/06/10 00:58:46;;;;;;;2.95;1.20;;;12.00;99.90;;;;;;5095392;27;20035;-70
2022/06/10 01:01:13;;;;;;;2.45;1.10;;;12.00;99.90;;;;;;5090140;28;20505;-70
2022/06/10 01:03:40;;;;;;;1.50;0.82;;;12.10;99.90;;;;;;5095509;27;20050;-70
2022/06/10 01:06:06;;;;;;;1.48;0.85;;;12.10;99.90;;;;;;5097262;27;20027;-70
2022/06/10 01:08:31;;;;;;;1.77;0.93;;;12.10;99.90;;;;;;5096016;27;20039;-70
2022/06/10 01:11:35;;;;;;;1.45;0.82;;;12.20;99.90;;;;;;5094412;27;20048;-70
2022/06/10 01:14:13;;;;;;;2.67;1.35;;;12.20;99.90;;;;;;5095132;27;20036;-70
2022/06/10 01:17:08;;;;;;;1.58;0.82;;;12.20;99.90;;;;;;5095444;27;20055;-70
2022/06/10 01:20:01;;;;;;;2.72;1.00;;;12.20;99.90;;;;;;5074403;28;20044;-70
2022/06/10 01:23:04;;;;;;;1.77;1.08;;;12.10;99.90;;;;;;5074737;27;20533;-70
2022/06/10 01:25:51;;;;;;;2.38;1.23;;;12.20;99.90;;;;;;5106338;27;20080;-70
2022/06/10 01:28:49;;;;;;;1.60;1.08;;;12.10;99.90;;;;;;5094578;27;20051;-70
2022/06/10 01:31:38;;;;;;;1.70;1.05;;;12.10;99.90;;;;;;5093573;27;20028;-70
2022/06/10 01:34:15;;;;;;;2.08;1.30;;;12.10;99.90;;;;;;5094530;27;20043;-70
2022/06/10 01:36:59;;;;;;;1.40;0.77;;;12.00;99.90;;;;;;5105978;27;20032;-70
2022/06/10 01:39:38;;;;;;;2.95;1.13;;;12.00;99.90;;;;;;5093453;27;20043;-70
2022/06/10 01:42:27;;;;;;;1.95;0.90;;;12.10;99.90;;;;;;5081023;27;20082;-70
2022/06/10 01:45:11;;;;;;;2.28;1.17;;;12.10;99.90;;;;;;5105316;27;20057;-70
2022/06/10 01:47:46;;;;;;;1.95;1.00;;;12.00;99.90;;;;;;5094006;28;20108;-70
2022/06/10 01:50:20;;;;;;;1.80;1.10;;;12.00;99.90;;;;;;5074920;27;20489;-70
2022/06/10 01:53:02;;;;;;;2.15;1.27;;;12.00;99.90;;;;;;5097498;27;20075;-70
2022/06/10 01:55:50;;;;;;;3.97;1.05;;;12.00;99.90;;;;;;5093869;27;20036;-70
2022/06/10 01:58:49;;;;;;;3.63;1.38;;;12.00;99.90;;;;;;5095742;27;20529;-70
2022/06/10 02:01:29;;;;;;;2.80;1.30;;;12.00;99.90;;;;;;5063323;28;20078;-70
2022/06/10 02:04:06;;;;;;;2.97;1.17;;;12.00;99.90;;;;;;5092286;27;20131;-70
2022/06/10 02:06:46;;;;;;;2.58;1.15;;;12.00;99.90;;;;;;5074888;28;20047;-70
2022/06/10 02:09:17;;;;;;;4.47;1.52;;;12.00;99.90;;;;;;5080117;28;20046;-70
2022/06/10 02:11:47;;;;;;;5.32;1.50;;;11.90;99.90;;;;;;5078570;27;20039;-70
2022/06/10 02:14:29;;;;;;;1.45;0.80;;;11.90;99.90;;;;;;5094032;27;20053;-70
2022/06/10 02:16:56;;;;;;;2.70;1.15;;;11.90;99.90;;;;;;5091317;27;20056;-70
2022/06/10 02:19:27;;;;;;;1.90;1.00;;;11.90;99.90;;;;;;5104338;27;20614;-70
2022/06/10 02:22:03;;;;;;;3.67;1.13;;;11.80;99.90;;;;;;5096861;27;20039;-70
2022/06/10 02:24:39;;;;;;;1.75;0.80;;;11.80;99.90;;;;;;5097814;27;21086;-70
2022/06/10 02:27:14;;;;;;;3.50;0.80;;;11.90;99.90;;;;;;5107209;27;20036;-70
2022/06/10 02:30:08;;;;;;;2.22;1.27;;;11.80;99.90;;;;;;5091659;27;20104;-70
2022/06/10 02:32:35;;;;;;;2.05;1.10;;;11.80;99.90;;;;;;5085402;28;20607;-70
2022/06/10 02:35:01;;;;;;;1.42;0.90;;;11.80;99.90;;;;;;5075499;28;20119;-70
2022/06/10 02:38:09;;;;;;;0.85;0.57;;;11.80;99.90;;;;;;5105045;27;20087;-70
2022/06/10 02:40:46;;;;;;;4.47;1.10;;;11.80;99.90;;;;;;5077505;28;20543;-70
2022/06/10 02:43:19;;;;;;;2.03;1.00;;;11.80;99.90;;;;;;5073122;28;20036;-70
2022/06/10 02:46:01;;;;;;;3.63;0.90;;;11.80;99.90;;;;;;5091309;28;20028;-70
2022/06/10 02:48:27;;;;;;;1.35;0.82;;;11.70;99.90;;;;;;5093676;28;20498;-70
2022/06/10 02:50:52;;;;;;;3.30;1.05;;;11.70;99.90;;;;;;5105915;28;20119;-70
2022/06/10 02:53:18;;;;;;;2.50;0.95;;;11.70;99.90;;;;;;5077700;28;20039;-70
2022/06/10 02:55:43;;;;;;;2.05;0.90;;;11.70;99.90;;;;;;5094841;28;20054;-70
2022/06/10 03:01:12;;;;;;;1.70;0.95;;;11.70;99.90;;;;;;5091107;28;20051;-70
2022/06/10 03:04:09;;;;;;;1.48;0.95;;;11.60;99.90;;;;;;5077733;28;20040;-70
2022/06/10 03:06:53;;;;;;;1.42;0.80;;;11.60;99.90;;;;;;5095885;28;20035;-69
2022/06/10 03:09:48;;;;;;;0.77;0.55;;;11.70;99.90;;;;;;5074572;28;20043;-70
2022/06/10 03:12:33;;;;;;;1.52;0.80;;;11.60;99.90;;;;;;5092975;28;20050;-70
2022/06/10 03:15:10;;;;;;;3.53;1.50;;;11.60;99.90;;;;;;5102963;28;20653;-70
2022/06/10 03:17:42;;;;;;;6.28;1.17;;;11.60;99.90;;;;;;5094057;28;20048;-70
2022/06/10 03:20:38;;;;;;;2.85;1.30;;;11.60;99.90;;;;;;5072101;28;20044;-70
2022/06/10 03:23:26;;;;;;;2.38;1.17;;;11.60;99.90;;;;;;5072870;28;20043;-70
2022/06/10 03:25:51;;;;;;;3.83;1.10;;;11.60;99.90;;;;;;5092399;28;20346;-70
2022/06/10 03:28:33;;;;;;;1.30;0.88;;;11.60;99.90;;;;;;5091024;28;20577;-70
2022/06/10 03:31:07;;;;;;;3.92;1.10;;;11.60;99.90;;;;;;5092527;28;20062;-70
2022/06/10 03:33:54;;;;;;;3.38;1.05;;;11.60;99.90;;;;;;5085902;28;20138;-70
2022/06/10 03:36:23;;;;;;;2.33;0.70;;;11.60;99.90;;;;;;5110210;27;20418;-70
2022/06/10 03:38:51;;;;;;;1.33;1.00;;;11.60;99.90;;;;;;5081104;28;20085;-70
2022/06/10 03:41:32;;;;;;;1.48;0.80;;;11.60;99.90;;;;;;5074243;28;20062;-70
2022/06/10 03:44:02;;;;;;;1.83;1.20;;;11.60;99.90;;;;;;5087995;28;20047;-70
2022/06/10 03:46:31;;;;;;;3.15;0.95;;;11.60;99.90;;;;;;5103952;28;20035;-70
2022/06/10 03:48:58;;;;;;;2.65;1.05;;;11.60;99.90;;;;;;5096835;28;20042;-70
2022/06/10 03:51:24;;;;;;;1.83;1.00;;;11.60;99.90;;;;;;5093577;28;20040;-70
2022/06/10 03:53:50;;;;;;;2.45;1.27;;;11.60;99.90;;;;;;5092667;28;20039;-70
2022/06/10 03:56:25;;;;;;;3.38;0.82;;;11.60;99.90;;;;;;5096094;27;20027;-70
2022/06/10 03:58:51;;;;;;;1.17;0.75;;;11.60;99.90;;;;;;5077952;28;20032;-70
2022/06/10 04:01:17;;;;;;;2.10;0.90;;;11.60;99.90;;;;;;5094674;27;20039;-70
2022/06/10 04:03:43;;;;;;;1.45;0.80;;;11.60;99.90;;;;;;5106645;27;20031;-70
2022/06/10 04:06:09;;;;;;;1.42;0.80;;;11.60;99.90;;;;;;5096045;27;20036;-70
2022/06/10 04:08:34;;;;;;;4.28;1.10;;;11.70;99.90;;;;;;5098142;27;20035;-70
2022/06/10 04:11:00;;;;;;;2.22;0.88;;;11.70;99.90;;;;;;5096152;27;20073;-70
2022/06/10 04:13:26;;;;;;;2.17;1.00;;;11.70;99.90;;;;;;5090545;27;20082;-70
2022/06/10 04:15:51;;;;;;;1.50;0.90;;;11.80;99.90;;;;;;5105232;27;20072;-70
2022/06/10 04:18:17;;;;;;;8.35;1.45;;;11.80;99.90;;;;;;5089936;28;20062;-69
2022/06/10 04:20:43;;;;;;;4.18;0.77;;;11.80;99.90;;;;;;5095307;27;20042;-70
2022/06/10 04:23:09;;;;;;;1.30;0.75;;;11.90;99.90;;;;;;5096283;27;21440;-70
2022/06/10 04:25:36;;;;;;;1.40;0.88;;;11.90;99.90;;;;;;5078776;27;20039;-70
2022/06/10 04:28:04;;;;;;;2.72;1.10;;;12.00;99.90;;;;;;5078708;27;20039;-70
2022/06/10 04:30:39;;;;;;;1.70;0.70;;;12.00;99.90;;;;;;5095631;27;20123;-70
2022/06/10 04:33:05;;;;;;;;;;;12.10;99.90;;;;;;5092951;27;20604;-70
2022/06/10 04:35:32;;;;;;;2.20;0.93;;;12.10;99.90;;;;;;5080011;27;19951;-70
2022/06/10 04:37:58;;;;;;;2.83;1.55;;;12.20;99.90;;;;;;5095607;27;20520;-70
2022/06/10 04:40:26;;;;;;;4.50;1.08;;;12.20;99.90;;;;;;5090741;27;20569;-70
2022/06/10 04:42:53;;;;;;;1.70;0.90;;;12.20;99.90;;;;;;5079128;27;20975;-70
2022/06/10 04:45:23;;;;;;;0.90;0.55;;;12.30;99.90;;;;;;5096130;27;20601;-70
2022/06/10 04:47:48;;;;;;;1.90;1.00;;;12.30;99.90;;;;;;5077329;27;20063;-70
2022/06/10 04:50:17;;;;;;;2.90;1.05;;;12.30;99.90;;;;;;5078507;27;20039;-70
2022/06/10 04:52:43;;;;;;;4.10;1.70;;;12.40;99.90;;;;;;5089176;27;20040;-70
2022/06/10 04:55:10;;;;;;;1.80;1.10;;;12.40;99.90;;;;;;5078676;28;20042;-70
2022/06/10 04:57:36;;;;;;;5.65;1.55;;;12.50;99.90;;;;;;5094807;27;20062;-70
2022/06/10 05:00:08;;;;;;;2.22;1.00;;;12.50;99.90;;;;;;5110376;27;20047;-70
2022/06/10 05:02:34;;;;;;;4.88;1.10;;;12.50;99.90;;;;;;5088932;27;20035;-70
2022/06/10 05:05:00;;;;;;;2.95;1.25;;;12.60;99.90;;;;;;5107629;27;20424;-70
2022/06/10 05:07:26;;;;;;;2.58;1.15;;;12.60;99.90;;;;;;5095977;27;20027;-70
2022/06/10 05:09:51;;;;;;;3.13;1.25;;;12.60;99.90;;;;;;5093345;27;20066;-70
2022/06/10 05:12:17;;;;;;;2.10;1.20;;;12.60;99.90;;;;;;5096369;27;20485;-70
2022/06/10 05:14:42;;;;;;;4.15;1.65;;;12.70;99.90;;;;;;5095239;27;20040;-70
2022/06/10 05:17:08;;;;;;;4.40;1.60;;;12.70;99.90;;;;;;5106788;27;20477;-70
2022/06/10 05:19:34;;;;;;;3.03;1.02;;;12.70;99.90;;;;;;5091847;27;20134;-70
2022/06/10 05:22:00;;;;;;;2.28;1.50;;;12.80;99.90;;;;;;5097933;27;20059;-70
2022/06/10 05:24:25;;;;;;;5.90;1.80;;;12.80;99.90;;;;;;5093000;27;20119;-70
2022/06/10 05:26:51;;;;;;;3.05;1.33;;;12.80;99.90;;;;;;5095419;27;20054;-71
2022/06/10 05:29:17;;;;;;;1.90;1.08;;;12.90;99.90;;;;;;5093070;27;20058;-70
2022/06/10 05:31:42;;;;;;;2.17;1.10;;;13.00;99.90;;;;;;5078335;28;20048;-70
2022/06/10 05:36:53;;;;;;;1.73;1.17;;;13.30;99.90;;;;;;5092538;27;20060;-70
2022/06/10 05:39:18;;;;;;;3.70;1.83;;;13.40;99.90;;;;;;5106518;27;20040;-70
2022/06/10 05:44:28;;;;;;;3.00;1.50;;;13.70;99.90;;;;;;5093002;27;20044;-69
2022/06/10 05:46:54;;;;;;;3.55;1.67;;;13.80;99.90;;;;;;5097101;27;21401;-70
2022/06/10 05:49:20;;;;;;;5.05;1.30;;;13.80;99.90;;;;;;5092932;27;20106;-70
2022/06/10 05:51:46;;;;;;;5.82;1.45;;;13.90;99.90;;;;;;5092077;27;20039;-70
2022/06/10 05:54:12;;;;;;;2.58;1.27;;;13.90;99.90;;;;;;5094654;27;20036;-70
2022/06/10 05:56:40;;;;;;;3.72;1.15;;;14.00;99.90;;;;;;5092289;27;20056;-70
2022/06/10 05:59:06;;;;;;;2.17;1.25;;;14.00;99.90;;;;;;5095264;27;20122;-69
2022/06/10 06:01:32;;;;;;;3.78;1.42;;;14.00;99.90;;;;;;5096528;27;20792;-70
2022/06/10 06:03:57;;;;;;;7.10;1.50;;;14.00;99.90;;;;;;5080372;28;20039;-70
2022/06/10 06:06:23;;;;;;;2.42;1.33;;;14.00;99.90;;;;;;5092493;27;20044;-70
2022/06/10 06:08:48;;;;;;;2.67;1.10;;;14.00;99.90;;;;;;5091626;27;20035;-70
2022/06/10 06:11:15;;;;;;;4.57;1.50;;;14.10;99.90;;;;;;5106595;27;20488;-70
2022/06/10 06:13:42;;;;;;;2.17;1.15;;;14.10;99.90;;;;;;5093634;27;20043;-70
2022/06/10 06:16:12;;;;;;;5.93;1.75;;;14.10;99.90;;;;;;5078528;27;20047;-70
2022/06/10 06:18:38;;;;;;;3.63;1.00;;;14.10;99.90;;;;;;5075110;28;20075;-70
2022/06/10 06:21:05;;;;;;;2.40;1.27;;;14.10;99.90;;;;;;5107689;27;20118;-70
2022/06/10 06:23:31;;;;;;;2.10;1.17;;;14.10;99.90;;;;;;5099245;27;20074;-70
2022/06/10 06:25:56;;;;;;;5.20;1.13;;;14.20;99.90;;;;;;5080798;28;20074;-70
2022/06/10 06:28:22;;;;;;;1.75;0.90;;;14.20;99.90;;;;;;5094752;27;20085;-70
2022/06/10 06:30:47;;;;;;;2.65;1.23;;;14.20;99.90;;;;;;5106674;27;21939;-70
2022/06/10 06:33:13;;;;;;;2.60;1.08;;;14.30;99.90;;;;;;5094383;27;20035;-70
2022/06/10 06:35:40;;;;;;;2.70;1.17;;;14.40;99.90;;;;;;5097709;28;20442;-70
2022/06/10 06:38:06;;;;;;;2.13;1.23;;;14.40;99.90;;;;;;5097315;27;20596;-70
2022/06/10 06:40:32;;;;;;;3.40;1.23;;;14.50;99.90;;;;;;5093858;28;20054;-72
2022/06/10 06:42:58;;;;;;;10.55;1.60;;;14.50;99.90;;;;;;5089139;28;20027;-72
2022/06/10 06:45:24;;;;;;;2.90;1.35;;;14.50;99.90;;;;;;5091054;28;20044;-70
2022/06/10 06:47:54;;;;;;;2.45;1.38;;;14.60;99.90;;;;;;5094883;28;20043;-70
2022/06/10 06:50:23;;;;;;;4.93;1.35;;;14.60;99.90;;;;;;5093363;28;20115;-70
2022/06/10 06:52:49;;;;;;;9.52;1.40;;;14.60;99.90;;;;;;5107425;27;20073;-70
2022/06/10 06:55:15;;;;;;;3.08;1.58;;;14.70;99.90;;;;;;5111944;28;20050;-70
2022/06/10 06:57:41;;;;;;;3.85;1.00;;;14.80;99.90;;;;;;5081497;28;20036;-70
2022/06/10 07:00:08;;;;;;;3.13;1.23;;;14.80;99.90;;;;;;5093156;28;20044;-70
2022/06/10 07:02:36;;;;;;;2.45;1.48;;;14.80;99.90;;;;;;5095072;27;20675;-70
2022/06/10 07:05:03;;;;;;;4.78;1.70;;;14.80;99.90;;;;;;5094675;28;20122;-70
2022/06/10 07:07:29;;;;;;;6.47;1.17;;;14.80;99.90;;;;;;5090760;28;20067;-70
2022/06/10 07:09:55;;;;;;;2.38;1.25;;;14.70;99.90;;;;;;5097537;28;20528;-70
2022/06/10 07:12:21;;;;;;;3.55;1.27;;;14.70;99.90;;;;;;5081381;28;20043;-70
2022/06/10 07:14:47;;;;;;;2.55;1.42;;;14.70;99.90;;;;;;5088577;28;20039;-70
2022/06/10 07:17:13;;;;;;;3.17;1.75;;;14.70;99.90;;;;;;5078235;28;20472;-70
2022/06/10 07:19:39;;;;;;;5.50;1.88;;;14.70;99.90;;;;;;5095076;28;20134;-70
2022/06/10 07:22:05;;;;;;;2.03;1.23;;;14.80;99.90;;;;;;5092178;28;20077;-70
2022/06/10 07:24:31;;;;;;;3.38;1.55;;;14.70;99.90;;;;;;5076644;28;20543;-70
2022/06/10 07:27:00;;;;;;;4.85;2.10;;;14.80;99.90;;;;;;5099515;27;20411;-70
2022/06/10 07:29:27;;;;;;;2.45;1.55;;;14.80;99.90;;;;;;5098648;27;20374;-70
2022/06/10 07:31:52;;;;;;;3.25;1.40;;;14.80;99.90;;;;;;5096988;27;20039;-70
2022/06/10 07:34:18;;;;;;;3.65;1.55;;;14.80;99.90;;;;;;5099588;27;20584;-70
2022/06/10 07:36:44;;;;;;;2.72;1.80;;;14.90;99.90;;;;;;5101552;27;20041;-70
2022/06/10 07:39:09;;;;;;;3.05;1.67;;;14.90;99.90;;;;;;5097500;27;20416;-73
2022/06/10 07:44:20;;;;;;;2.88;1.38;;;15.00;99.90;;;;;;5096123;27;20477;-71
2022/06/10 07:46:48;;;;;;;5.25;1.85;;;15.10;99.90;;;;;;5101513;27;20851;-71
2022/06/10 07:49:13;;;;;;;5.40;1.42;;;15.10;99.90;;;;;;5101230;27;20122;-70
2022/06/10 07:51:39;;;;;;;5.72;2.00;;;15.20;99.90;;;;;;5100024;27;20118;-70
2022/06/10 07:54:05;;;;;;;2.80;1.50;;;15.10;99.90;;;;;;5099086;27;20809;-70
2022/06/10 07:56:30;;;;;;;4.22;1.60;;;15.20;99.90;;;;;;5099675;27;20050;-70
2022/06/10 07:58:58;;;;;;;2.53;1.42;;;15.30;99.90;;;;;;5114773;27;20040;-70
2022/06/10 08:01:25;;;;;;;5.35;1.98;;;15.50;99.90;;;;;;5097371;27;20039;-70
2022/06/10 08:03:51;;;;;;;2.33;1.60;;;15.60;99.90;;;;;;5100049;28;20140;-71
2022/06/10 08:06:18;;;;;;;2.80;1.60;;;15.70;99.90;;;;;;5100663;27;20053;-70
2022/06/10 08:08:44;;;;;;;3.70;1.85;;;15.70;99.90;;;;;;5111963;27;20034;-70
2022/06/10 08:11:09;;;;;;;4.95;2.38;;;15.70;99.90;;;;;;5096140;28;20035;-70
2022/06/10 08:13:35;;;;;;;3.47;1.98;;;15.70;99.90;;;;;;5100700;27;20443;-69
2022/06/10 08:16:01;;;;;;;3.67;1.83;;;15.70;99.90;;;;;;5084036;27;20130;-70
2022/06/10 08:18:31;;;;;;;1.52;1.08;;;15.70;99.90;;;;;;5100017;27;21445;-70
2022/06/10 08:23:42;;;;;;;11.48;1.60;;;15.70;99.90;;;;;;5098295;27;20052;-70
2022/06/10 08:26:09;;;;;;;4.85;2.00;;;15.70;99.90;;;;;;5073329;27;20377;-68
2022/06/10 08:28:37;;;;;;;4.43;1.55;;;15.70;99.90;;;;;;5100074;27;20491;-70
2022/06/10 08:31:03;;;;;;;5.45;2.15;;;15.70;99.90;;;;;;5095088;27;20032;-70
2022/06/10 08:33:29;;;;;;;5.25;1.85;;;15.70;99.90;;;;;;5099117;27;20185;-70
2022/06/10 08:35:55;;;;;;;3.13;1.55;;;15.80;99.90;;;;;;5112851;27;20497;-70
2022/06/10 08:38:21;;;;;;;2.45;1.73;;;15.90;99.90;;;;;;5099938;27;20043;-70
2022/06/10 08:41:00;;;;;;;2.72;1.70;;;15.90;99.90;;;;;;5083241;28;20396;-70
2022/06/10 08:43:38;;;;;;;2.67;1.73;;;16.00;99.90;;;;;;5097284;27;20118;-70
2022/06/10 08:46:26;;;;;;;2.83;1.45;;;16.00;99.90;;;;;;5098710;27;20051;-70
2022/06/10 08:49:17;;;;;;;2.63;1.40;;;16.10;99.90;;;;;;5084315;27;20435;-70
2022/06/10 08:52:21;;;;;;;2.45;1.58;;;16.10;99.90;;;;;;5100453;27;20039;-70
2022/06/10 08:55:06;;;;;;;2.03;1.30;;;16.30;99.90;;;;;;5075461;28;20055;-70
2022/06/10 08:57:37;;;;;;;5.43;1.80;;;16.40;99.90;;;;;;5098863;27;20275;-70
2022/06/10 09:00:24;;;;;;;3.05;1.52;;;16.40;99.90;;;;;;5097964;27;20044;-70
2022/06/10 09:03:03;;;;;;;2.15;1.27;;;16.50;99.90;;;;;;5099576;27;20776;-70
2022/06/10 09:05:34;;;;;;;4.05;1.17;;;16.60;99.90;;;;;;5100934;27;20043;-73
2022/06/10 09:08:03;;;;;;;5.22;1.10;;;16.70;99.90;;;;;;5098201;27;20042;-70
2022/06/10 09:10:41;;;;;;;3.90;1.05;;;16.80;99.90;;;;;;5098894;27;20431;-70
2022/06/10 09:13:21;;;;;;;3.35;1.30;;;16.80;99.90;;;;;;5114566;27;20070;-70
2022/06/10 09:15:58;;;;;;;2.45;1.25;;;16.90;99.90;;;;;;5105131;27;20040;-70
2022/06/10 09:18:34;;;;;;;5.80;1.33;;;16.90;99.90;;;;;;5099068;27;20085;-70
2022/06/10 09:21:12;;;;;;;1.73;1.15;;;16.90;99.90;;;;;;5076374;28;20638;-70
2022/06/10 09:23:41;;;;;;;3.70;1.30;;;16.90;99.90;;;;;;5083508;28;20479;-70
2022/06/10 09:26:13;;;;;;;1.85;1.20;;;16.90;99.90;;;;;;5108542;27;20121;-70
2022/06/10 09:28:39;;;;;;;4.85;1.13;;;16.90;99.90;;;;;;5080071;27;20032;-70
2022/06/10 09:31:18;;;;;;;2.95;1.17;;;16.90;99.90;;;;;;5098767;27;22534;-70
2022/06/10 09:34:02;;;;;;;2.75;1.65;;;16.80;99.90;;;;;;5103344;27;20196;-70
2022/06/10 09:36:49;;;;;;;1.67;1.02;;;16.80;99.90;;;;;;5106559;27;21034;-70
2022/06/10 09:42:50;;;;;;;1.88;1.25;;;17.00;99.90;;;;;;5098487;27;20681;-70
2022/06/10 09:45:24;;;;;;;4.18;1.48;;;17.00;99.90;;;;;;5100821;27;20043;-70
2022/06/10 09:48:32;;;;;;;3.03;1.42;;;16.90;99.90;;;;;;5092710;27;20438;-70
2022/06/10 09:51:08;;;;;;;4.28;1.58;;;16.80;99.90;;;;;;5097336;27;21711;-70
2022/06/10 09:53:51;;;;;;;2.20;1.35;;;16.80;99.90;;;;;;5107067;27;20035;-70
2022/06/10 09:56:38;;;;;;;3.22;1.48;;;16.70;99.90;;;;;;5094688;27;20048;-70
2022/06/10 09:59:29;;;;;;;1.70;1.10;;;16.80;99.90;;;;;;5104445;27;20070;-70
2022/06/10 10:02:22;;;;;;;3.78;1.45;;;16.70;99.90;;;;;;5081795;27;20066;-71
2022/06/10 10:05:36;;;;;;;2.58;1.27;;;16.80;99.90;;;;;;5077979;27;20048;-71
2022/06/10 10:08:07;;;;;;;5.65;1.48;;;16.80;99.90;;;;;;5056596;28;20127;-70
2022/06/10 10:11:07;;;;;;;2.05;1.00;;;17.00;99.90;;;;;;5043537;28;20074;-70
2022/06/10 10:13:51;;;;;;;3.78;1.42;;;17.10;99.90;;;;;;5084676;27;20288;-70
2022/06/10 10:16:31;;;;;;;2.03;1.27;;;17.30;99.90;;;;;;5089339;28;20483;-70
2022/06/10 10:19:13;;;;;;;2.55;1.42;;;17.40;99.90;;;;;;5093849;27;20081;-70
2022/06/10 10:22:05;;;;;;;2.78;1.10;;;17.50;99.90;;;;;;5093468;27;20042;-72
2022/06/10 10:24:38;;;;;;;2.60;1.20;;;17.70;99.90;;;;;;5103724;27;20049;-70
2022/06/10 10:27:10;;;;;;;2.95;1.30;;;17.80;99.90;;;;;;5097526;27;20209;-71
2022/06/10 10:29:40;;;;;;;2.63;1.20;;;17.80;99.90;;;;;;5092923;27;20044;-70
2022/06/10 10:32:18;;;;;;;3.30;1.27;;;18.00;99.90;;;;;;5101043;27;20055;-71
2022/06/10 10:34:52;;;;;;;5.30;1.20;;;18.00;99.90;;;;;;5093105;27;20099;-70
2022/06/10 10:37:29;;;;;;;3.45;1.60;;;18.10;99.90;;;;;;5084485;28;20035;-70
2022/06/10 10:40:20;;;;;;;2.65;1.48;;;18.20;99.90;;;;;;5089903;27;20043;-70
2022/06/10 10:42:48;;;;;;;2.33;1.05;;;18.10;99.90;;;;;;5096029;28;20036;-70
2022/06/10 10:45:39;;;;;;;2.65;1.08;;;18.10;99.90;;;;;;5075401;28;20081;-70
2022/06/10 10:48:16;;;;;;;1.90;1.05;;;18.00;99.90;;;;;;5095714;28;20455;-70
2022/06/10 10:50:57;;;;;;;3.85;1.10;;;18.00;99.90;;;;;;5089471;28;20180;-70
2022/06/10 10:53:30;;;;;;;4.95;1.23;;;18.10;99.90;;;;;;5103213;28;20450;-70
2022/06/10 10:55:58;;;;;;;2.83;1.00;;;18.20;99.90;;;;;;5096009;28;20075;-70
2022/06/10 10:58:28;;;;;;;4.00;1.30;;;18.30;99.90;;;;;;5090170;28;20063;-70
2022/06/10 11:01:45;;;;;;;6.80;1.50;;;18.40;99.90;;;;;;5101532;28;20046;-70
2022/06/10 11:04:32;;;;;;;2.20;1.02;;;18.40;99.90;;;;;;5096213;27;20324;-70
2022/06/10 11:06:59;;;;;;;1.90;0.90;;;18.30;99.90;;;;;;5091302;27;20036;-70
2022/06/10 11:09:25;;;;;;;1.63;0.95;;;18.30;99.90;;;;;;5102043;27;20456;-71
2022/06/10 11:11:53;;;;;;;3.50;1.35;;;18.30;99.90;;;;;;5101366;27;20518;-70
2022/06/10 11:14:31;;;;;;;2.95;1.27;;;18.40;99.90;;;;;;5099023;27;20055;-70
2022/06/10 11:17:03;;;;;;;1.73;1.10;;;18.30;99.90;;;;;;5110406;27;20047;-70
2022/06/10 11:19:32;;;;;;;2.03;1.00;;;18.40;99.90;;;;;;5098435;27;20043;-70
2022/06/10 11:22:01;;;;;;;4.60;1.02;;;18.40;99.90;;;;;;5107555;27;20061;-70
2022/06/10 11:24:31;;;;;;;2.47;0.85;;;18.40;99.90;;;;;;5101309;27;20046;-70
2022/06/10 11:26:59;;;;;;;1.45;0.80;;;18.40;99.90;;;;;;5097542;27;20087;-70
2022/06/10 11:29:27;;;;;;;3.97;0.98;;;18.40;99.90;;;;;;5097162;27;20475;-71
2022/06/10 11:32:00;;;;;;;1.70;0.98;;;18.40;99.90;;;;;;5101395;27;20114;-70
2022/06/10 11:34:38;;;;;;;2.15;0.98;;;18.40;99.90;;;;;;5094746;27;20615;-70
2022/06/10 11:37:22;;;;;;;2.08;1.00;;;18.50;99.90;;;;;;5112511;27;20480;-70
2022/06/10 11:39:52;;;;;;;2.08;1.25;;;18.60;99.90;;;;;;5100412;27;20051;-70
2022/06/10 11:42:24;;;;;;;2.58;1.10;;;18.80;99.90;;;;;;5109638;27;20477;-70
2022/06/10 11:44:56;;;;;;;2.45;0.80;;;19.00;99.90;;;;;;5082392;27;20333;-70
2022/06/10 11:47:29;;;;;;;2.90;1.50;;;19.00;99.90;;;;;;5097094;27;20047;-70
2022/06/10 11:50:00;;;;;;;2.00;1.35;;;19.10;99.90;;;;;;5087522;28;20039;-70
2022/06/10 11:52:29;;;;;;;2.65;1.25;;;19.10;99.90;;;;;;5100660;27;20126;-70
2022/06/10 11:55:18;;;;;;;4.70;1.70;;;19.00;99.90;;;;;;5096337;27;20578;-71
2022/06/10 12:00:52;;;;;;;2.53;1.38;;;18.80;99.90;;;;;;5101833;27;20870;-70
2022/06/10 12:03:36;;;;;;;4.47;1.40;;;18.70;99.90;;;;;;5106427;27;20086;-70
2022/06/10 12:06:18;;;;;;;1.90;1.10;;;18.70;99.90;;;;;;5092705;27;20543;-70
2022/06/10 12:08:49;;;;;;;4.40;1.45;;;18.70;99.90;;;;;;5094361;27;20519;-70
2022/06/10 12:11:33;;;;;;;2.70;1.20;;;18.70;99.90;;;;;;5098290;27;20036;-70
2022/06/10 12:14:17;;;;;;;2.50;1.30;;;18.80;99.90;;;;;;5086117;27;20043;-70
2022/06/10 12:16:48;;;;;;;3.92;1.48;;;18.90;99.90;;;;;;5089885;27;20638;-70
2022/06/10 12:19:20;;;;;;;3.60;1.20;;;18.90;99.90;;;;;;5091901;27;20065;-70
2022/06/10 12:21:46;;;;;;;2.13;1.10;;;19.00;99.90;;;;;;5100675;27;20047;-70
2022/06/10 12:24:18;;;;;;;3.00;1.30;;;19.00;99.90;;;;;;5090785;27;20031;-70
2022/06/10 12:27:02;;;;;;;5.05;1.33;;;18.90;99.90;;;;;;5073720;28;20493;-70
2022/06/10 12:29:27;;;;;;;3.50;1.30;;;18.90;99.90;;;;;;5101417;27;20059;-70
2022/06/10 12:32:18;;;;;;;2.30;1.35;;;18.90;99.90;;;;;;5103326;27;20044;-71
2022/06/10 12:34:58;;;;;;;2.97;0.95;;;19.00;99.90;;;;;;5096642;27;20439;-70
2022/06/10 12:37:23;;;;;;;3.05;1.10;;;19.10;99.90;;;;;;5076530;28;20704;-70
2022/06/10 12:39:54;;;;;;;2.72;1.20;;;19.20;99.90;;;;;;5097555;27;20043;-70
2022/06/10 12:42:26;;;;;;;2.75;1.10;;;19.40;99.90;;;;;;5095531;27;20039;-70
2022/06/10 12:44:58;;;;;;;4.15;1.50;;;19.50;99.90;;;;;;5091663;27;20039;-70
2022/06/10 12:47:30;;;;;;;2.15;1.10;;;19.70;99.90;;;;;;5095734;27;20040;-70
2022/06/10 12:50:02;;;;;;;3.30;1.27;;;19.70;99.90;;;;;;5097299;27;20431;-70
2022/06/10 12:52:48;;;;;;;3.88;1.60;;;19.60;99.90;;;;;;5084308;27;20031;-70
2022/06/10 12:55:13;;;;;;;3.72;1.13;;;19.70;99.90;;;;;;5092949;27;20126;-70
2022/06/10 12:57:39;;;;;;;1.77;1.10;;;19.70;99.90;;;;;;5097328;27;20061;-71
2022/06/10 13:00:17;;;;;;;2.13;1.10;;;19.70;99.90;;;;;;5094611;27;20402;-71
2022/06/10 13:02:47;;;;;;;1.95;1.02;;;19.70;99.90;;;;;;5080573;27;20166;-71
2022/06/10 13:05:24;;;;;;;3.25;1.10;;;19.70;99.90;;;;;;5097452;27;20062;-71
2022/06/10 13:07:50;;;;;;;1.45;0.80;;;19.80;99.90;;;;;;5086992;27;20553;-71
2022/06/10 13:10:28;;;;;;;2.40;1.02;;;19.80;99.90;;;;;;5085411;28;20086;-71
2022/06/10 13:13:08;;;;;;;1.75;0.95;;;19.90;99.90;;;;;;5087789;27;20043;-71
2022/06/10 13:15:34;;;;;;;4.40;1.33;;;19.90;99.90;;;;;;5085384;27;20039;-70
2022/06/10 13:18:29;;;;;;;3.10;1.30;;;19.90;99.90;;;;;;5094316;27;20056;-71
2022/06/10 13:20:55;;;;;;;4.13;1.17;;;19.80;99.90;;;;;;5099963;27;20039;-70
2022/06/10 13:23:26;;;;;;;0.95;0.75;;;19.70;99.90;;;;;;5098820;27;20035;-70
2022/06/10 13:26:14;;;;;;;1.85;0.70;;;19.60;99.90;;;;;;5099404;27;20592;-70
2022/06/10 13:28:43;;;;;;;3.40;0.80;;;19.50;99.90;;;;;;5094095;27;20080;-70
2022/06/10 13:31:14;;;;;;;2.55;0.90;;;19.40;99.90;;;;;;5079508;27;20134;-70
2022/06/10 13:34:01;;;;;;;3.25;1.05;;;19.30;99.90;;;;;;5090501;27;20059;-70
2022/06/10 13:36:43;;;;;;;1.92;1.20;;;19.30;99.90;;;;;;5089383;27;20042;-70
2022/06/10 13:39:20;;;;;;;2.22;1.00;;;19.40;99.90;;;;;;5108464;27;20084;-70